Terminal Aerodrome Forecast
Issued by NWS Lake Charles, LA

Home | Current Version | Previous Version | Text Only | Print | Product List | Glossary On
Versions: 1 2 3 4 5 6 7 8 9 10 11 12 13 14 15 16 17 18 19 20 21 22 23
000
FTUS44 KLCH 142300
TAFARA
TAF
KARA 142320Z 1500/1524 02007KT P6SM SCT015
      TEMPO 1509/1512 BKN015
     FM151500 06009KT P6SM SCT035
      TEMPO 1518/1521 5SM -TSRA BKN025CB=

USA.gov is the U.S. government's official web portal to all federal, state and local government web resources and services.